Colorado Springs, CO (80917)

10:42 AM MST on February 07, 2016 (GMT -0700)
StagnerVille | | Change Station
CLOSE
Current Station
Personal Weather Station
Location: Colorado Springs, CO
Elevation: 6499 ft
Nearby Weather Stations

Elev 6499 ft 38.89 °N, 104.75 °W | Updated 10 minutes ago

Clear
Clear
43.0 °F
Feels Like 42 °F
N
3.2
Wind Variable Wind from SW

Today
High -- | Low -- °F
--% Chance of Precip.
Yesterday
High -- | Low -- °F
Precip. -- in
Pressure 30.34 in
Visibility 10.0 miles
Clouds Few 8000 ft
Few 20000 ft
Scattered Clouds 25000 ft
Windchill 42 °F
Dew Point 25 °F
Humidity 49%
Rainfall 0.00 in
Snow Depth Not available.
6:59 AM 5:26 PM
Waning Crescent, 1% visible
METAR KCOS 071654Z 00000KT 10SM FEW080 FEW200 SCT250 01/M08 A3029 RMK AO2 SLP273 CCSL SW T00061078
Pressure 30.34 in
Visibility 10.0 miles
Clouds Few 8000 ft
Few 20000 ft
Scattered Clouds 25000 ft
Windchill 42 °F
Dew Point 25 °F
Humidity 49%
Rainfall 0.00 in
Snow Depth Not available.
6:59 AM 5:26 PM
Waning Crescent, 1% visible
METAR KCOS 071654Z 00000KT 10SM FEW080 FEW200 SCT250 01/M08 A3029 RMK AO2 SLP273 CCSL SW T00061078

10-Day Weather Forecast

Almanac

Astronomy

Feb. 07, 2016 Rise Set
Actual Time
Civil Twilight
Nautical Twilight
Astronomical Twilight
Moon
Length of Visible Light
Length of Day
Tomorrow will be .
, % of the Moon is Illuminated

Today's Extremes

State Highs State Lows

Community

WunderPhotos

Upload Photos

1,891,248 photos uploaded!

WunderBlog® & News

Nearby

Air Quality

  Air Quality AQ Index Pollutant
Not available.

Snow Depth

Station Depth Elevation

Earthquake Activity

City Distance Mag. Time & Date
Minimum magnitude displayed is 2.5.

Coastal Water Temperatures

Place Temperature

Stations

Nearby Weather Stations

Station Location Temp. Windchill Dew Point Humidity Wind Precip. Elev Updated Type
                   

Watches & Warnings

There are currently no watches in effect.